Flight Track Log - Related Links

Times and Time Zones

All times are in EDT time to prevent confusion due to time zone crossing. See the AWE400 flight status page for this flight to view local times or setup timezone preferences in your user account.

Time Position Orientation Groundspeed Altitude Reporting Facility
EDT Latitude Longitude Course Direction KTS MPH feet Rate Location/Type
Tue 02:05:24 PM 33.4333 -112.0333 334° Northwest 168 193 2,400  Level Phoenix TRACON
Tue 02:06:25 PM 33.4500 -112.1000 287° West 210 242 3,200 1,314 Climbing Phoenix TRACON
Tue 02:07:09 PM 33.4439 -112.1531 262° West 240 276 4,700 2,434 Climbing Albuquerque Center
Tue 02:08:00 PM 33.8579 -112.2412 334° Northwest  Level FlightAware Approximate
Tue 02:08:11 PM 33.5011 -112.1864 334° Northwest 268 308 7,500  Level Albuquerque Center
Tue 02:09:00 PM 33.9645 -112.3030 334° Northwest  Level FlightAware Approximate
Tue 02:09:14 PM 33.5742 -112.1672 12° North 269 310 10,300  Level Albuquerque Center
Tue 02:10:00 PM 34.0725 -112.3568 334° Northwest  Level FlightAware Approximate
Tue 02:10:15 PM 33.6544 -112.1956 344° North 303 349 12,100  Level Albuquerque Center
Tue 02:11:17 PM 33.7575 -112.2325 343° North 321 369 14,700 2,226 Climbing Albuquerque Center
Tue 02:12:19 PM 33.8475 -112.2664 343° North 335 386 16,700 2,000 Climbing Albuquerque Center
Tue 02:13:20 PM 33.9403 -112.3017 342° North 345 397 18,800 1,333 Climbing Albuquerque Center
Tue 02:15:19 PM 34.1278 -112.3978 337° Northwest 400 460 20,700 1,160 Climbing Los Angeles Center
Tue 02:16:21 PM 34.2117 -112.4894 318° Northwest 406 467 22,300 1,597 Climbing Los Angeles Center
Tue 02:17:23 PM 34.3131 -112.5986 318° Northwest 411 473 24,000 1,306 Climbing Los Angeles Center
Tue 02:18:25 PM 34.3992 -112.6925 318° Northwest 417 480 25,000 1,016 Climbing Los Angeles Center
Tue 02:19:27 PM 34.4883 -112.7872 319° Northwest 426 490 26,100 1,031 Climbing Los Angeles Center
Tue 02:20:33 PM 34.5767 -112.8867 317° Northwest 433 498 27,200 1,031 Climbing Albuquerque Center
Tue 02:21:35 PM 34.6858 -113.0067 318° Northwest 440 506 28,300 1,258 Climbing Albuquerque Center
Tue 02:22:37 PM 34.7789 -113.1094 318° Northwest 448 516 29,800 1,452 Climbing Albuquerque Center
Tue 02:23:39 PM 34.8675 -113.2069 318° Northwest 437 503 31,300 843 Climbing Albuquerque Center
Tue 02:24:38 PM 34.9528 -113.3114 315° West 435 501 31,500 397 Climbing Los Angeles Center
Tue 02:25:40 PM 35.0178 -113.4425 301° West 449 517 32,100 774 Climbing Los Angeles Center
Tue 02:26:42 PM 35.0639 -113.5858 291° West 453 521 33,100 919 Climbing Los Angeles Center
Tue 02:27:44 PM 35.1100 -113.7278 292° West 450 518 34,000 435 Climbing Los Angeles Center
Tue 02:28:46 PM 35.1547 -113.8678 291° West 443 510 34,000  Level Los Angeles Center
Tue 02:29:48 PM 35.2061 -114.0333 291° West 441 507 34,000  Level Los Angeles Center
Tue 02:30:50 PM 35.2519 -114.1736 292° West 441 507 34,000  Level Los Angeles Center
Tue 02:31:52 PM 35.2967 -114.3136 291° West 442 509 34,000  Level Los Angeles Center
Tue 02:32:54 PM 35.3411 -114.4556 291° West 444 511 34,000  Level Los Angeles Center
Tue 02:33:56 PM 35.3764 -114.5697 291° West 447 514 34,000  Level Los Angeles Center
Tue 02:34:59 PM 35.4414 -114.7692 292° West 447 514 34,000  Level Los Angeles Center
Tue 02:36:01 PM 35.5142 -114.8950 305° West 450 518 34,000  Level Los Angeles Center
Tue 02:37:03 PM 35.5997 -115.0117 312° West 455 524 34,000  Level Los Angeles Center
Tue 02:38:05 PM 35.6831 -115.1300 311° West 457 526 34,000  Level Los Angeles Center
Tue 02:39:07 PM 35.7653 -115.2475 311° West 454 522 34,000  Level Los Angeles Center
Tue 02:40:09 PM 35.8328 -115.3414 312° West 454 522 34,000  Level Los Angeles Center
Tue 02:41:11 PM 35.9492 -115.5075 311° West 454 522 34,000  Level Los Angeles Center
Tue 02:42:13 PM 36.0333 -115.6275 311° West 455 524 34,000  Level Los Angeles Center
Tue 02:43:16 PM 36.1169 -115.7489 310° West 456 525 34,000  Level Los Angeles Center
Tue 02:44:18 PM 36.2000 -115.8722 310° West 459 528 34,000  Level Los Angeles Center
Tue 02:45:20 PM 36.2897 -116.0008 311° West 458 527 34,000  Level Los Angeles Center
Tue 02:46:22 PM 36.3722 -116.1200 311° West 455 524 34,000  Level Los Angeles Center
Tue 02:47:24 PM 36.4483 -116.2264 312° West 453 521 34,000  Level Los Angeles Center
Tue 02:48:26 PM 36.5361 -116.3572 310° West 451 519 34,000  Level Los Angeles Center
Tue 02:49:28 PM 36.6175 -116.4769 310° West 452 520 34,000  Level Los Angeles Center
Tue 02:50:42 PM 36.7000 -116.5969 311° West 454 522 34,000  Level Los Angeles Center
Tue 02:51:45 PM 36.8200 -116.7589 313° West 456 525 34,000  Level Los Angeles Center
Tue 02:52:47 PM 36.9247 -116.8517 325° Northwest 461 531 34,000  Level Los Angeles Center
Tue 02:54:01 PM 37.0303 -116.9397 326° Northwest 457 526 34,000  Level Los Angeles Center
Tue 02:55:04 PM 37.1581 -117.0469 326° Northwest 458 527 34,000  Level Los Angeles Center
Tue 02:56:06 PM 37.2631 -117.1361 326° Northwest 457 526 34,000  Level Los Angeles Center
Tue 02:57:08 PM 37.3458 -117.2547 311° West 459 528 34,000  Level Los Angeles Center
Tue 02:58:10 PM 37.3667 -117.4103 280° West 455 524 34,000  Level Los Angeles Center
Tue 02:58:45 PM 37.3742 -117.5028 276° West 450 518 34,000  Level Oakland Center
Tue 02:59:47 PM 37.3908 -117.6897 276° West 446 513 34,000  Level Oakland Center
Tue 03:00:48 PM 37.4033 -117.8439 276° West 444 511 34,000  Level Oakland Center
Tue 03:01:50 PM 37.4167 -117.9961 276° West 440 506 34,000  Level Oakland Center
Tue 03:02:51 PM 37.4303 -118.1522 276° West 446 513 34,000  Level Oakland Center
Tue 03:03:53 PM 37.4428 -118.3058 276° West 444 511 34,000  Level Oakland Center
Tue 03:04:54 PM 37.4553 -118.4614 276° West 445 512 34,000  Level Oakland Center
Tue 03:05:56 PM 37.4672 -118.6175 276° West 447 514 34,000  Level Oakland Center
Tue 03:06:57 PM 37.4803 -118.7725 276° West 446 513 34,000  Level Oakland Center
Tue 03:07:59 PM 37.4903 -118.9281 275° West 445 512 34,000  Level Oakland Center
Tue 03:09:00 PM 37.5028 -119.0819 276° West 445 512 34,000 -49 Level Oakland Center
Tue 03:10:02 PM 37.5164 -119.2678 275° West 446 513 33,900  Descending Oakland Center
Tue 03:11:03 PM 37.5275 -119.4214 275° West 444 511 34,000 49 Climbing Oakland Center
Tue 03:12:05 PM 37.5392 -119.5725 276° West 444 511 34,000  Level Oakland Center
Tue 03:13:06 PM 37.5492 -119.7272 275° West 443 510 34,000  Level Oakland Center
Tue 03:14:08 PM 37.5606 -119.8800 275° West 439 505 34,000 -683 Level Oakland Center
Tue 03:15:09 PM 37.5711 -120.0339 275° West 440 506 32,600 -1,902 Descending Oakland Center
Tue 03:16:11 PM 37.5817 -120.1919 275° West 447 514 30,100 -2,195 Descending Oakland Center
Tue 03:17:12 PM 37.5906 -120.3453 274° West 443 510 28,100 -2,195 Descending Oakland Center
Tue 03:18:14 PM 37.6014 -120.5264 274° West 432 497 25,600 -2,390 Descending Oakland Center
Tue 03:19:15 PM 37.5981 -120.6739 268° West 423 487 23,200 -2,098 Descending Oakland Center
Tue 03:20:17 PM 37.5917 -120.8181 267° West 414 476 21,300 -1,902 Descending Oakland Center
Tue 03:21:18 PM 37.5850 -120.9558 267° West 398 458 19,300 -1,902 Descending Oakland Center
Tue 03:22:20 PM 37.5781 -121.0933 266° West 394 453 17,400 -1,902 Descending Oakland Center
Tue 03:23:21 PM 37.5708 -121.2317 266° West 381 438 15,400 -1,854 Descending Oakland Center
Tue 03:24:23 PM 37.5644 -121.3614 266° West 372 428 13,600 -1,610 Descending Oakland Center
Tue 03:25:24 PM 37.5533 -121.4833 263° West 357 411 12,100 -1,317 Descending Oakland Center
Tue 03:26:26 PM 37.5333 -121.5950 257° West 330 380 10,900 -1,406 Descending Oakland Center
Tue 03:27:32 PM 37.5167 -121.7167 260° West 302 348 9,100 -1,440 Descending Northern Cal TRACON
Tue 03:28:31 PM 37.5000 -121.8167 258° West 292 336 7,900 -958 Descending Northern Cal TRACON
Tue 03:29:31 PM 37.4833 -121.9167 258° West 272 313 7,200 -893 Descending Northern Cal TRACON
Tue 03:30:32 PM 37.5000 -122.0000 284° West 240 276 6,100 -1,041 Descending Northern Cal TRACON
Tue 03:31:32 PM 37.5333 -122.0833 297° West 232 267 5,100 -1,000 Descending Northern Cal TRACON

Login

Don't have an account? Register now (free) for customized features, flight alerts, and more!